sensor_id;sensor_type;location;lat;lon;timestamp;temperature;humidity
23560;DHT22;11958;50.836;4.438;2023-07-31T00:01:03;18.10;91.00
23560;DHT22;11958;50.836;4.438;2023-07-31T00:03:29;17.90;90.30
23560;DHT22;11958;50.836;4.438;2023-07-31T00:05:58;17.90;90.90
23560;DHT22;11958;50.836;4.438;2023-07-31T00:08:29;18.00;91.00
23560;DHT22;11958;50.836;4.438;2023-07-31T00:11:06;17.80;91.50
23560;DHT22;11958;50.836;4.438;2023-07-31T00:13:57;18.00;91.10
23560;DHT22;11958;50.836;4.438;2023-07-31T00:16:23;18.10;90.90
23560;DHT22;11958;50.836;4.438;2023-07-31T00:19:15;18.10;90.70
23560;DHT22;11958;50.836;4.438;2023-07-31T00:21:44;17.80;91.30
23560;DHT22;11958;50.836;4.438;2023-07-31T00:24:25;17.80;92.00
23560;DHT22;11958;50.836;4.438;2023-07-31T00:26:51;17.80;91.60
23560;DHT22;11958;50.836;4.438;2023-07-31T00:29:29;18.00;92.20
23560;DHT22;11958;50.836;4.438;2023-07-31T00:32:04;18.00;91.30
23560;DHT22;11958;50.836;4.438;2023-07-31T00:34:29;18.00;91.00
23560;DHT22;11958;50.836;4.438;2023-07-31T00:36:58;17.80;90.90
23560;DHT22;11958;50.836;4.438;2023-07-31T00:39:45;17.80;90.90
23560;DHT22;11958;50.836;4.438;2023-07-31T00:42:11;18.10;90.80
23560;DHT22;11958;50.836;4.438;2023-07-31T00:44:42;18.10;90.80
23560;DHT22;11958;50.836;4.438;2023-07-31T01:18:04;17.90;90.40
23560;DHT22;11958;50.836;4.438;2023-07-31T01:20:31;17.90;90.80
23560;DHT22;11958;50.836;4.438;2023-07-31T01:29:07;17.80;90.30
23560;DHT22;11958;50.836;4.438;2023-07-31T01:38:13;17.80;90.70
23560;DHT22;11958;50.836;4.438;2023-07-31T01:41:03;18.00;90.00
23560;DHT22;11958;50.836;4.438;2023-07-31T01:43:29;18.00;90.30
23560;DHT22;11958;50.836;4.438;2023-07-31T01:46:01;18.10;90.30
23560;DHT22;11958;50.836;4.438;2023-07-31T01:52:18;17.90;90.70
23560;DHT22;11958;50.836;4.438;2023-07-31T01:54:56;18.00;90.30
23560;DHT22;11958;50.836;4.438;2023-07-31T01:57:24;18.00;90.60
23560;DHT22;11958;50.836;4.438;2023-07-31T01:59:50;17.90;90.90
23560;DHT22;11958;50.836;4.438;2023-07-31T02:05:49;17.90;91.30
23560;DHT22;11958;50.836;4.438;2023-07-31T02:08:50;18.20;89.50
23560;DHT22;11958;50.836;4.438;2023-07-31T02:11:22;18.20;89.30
23560;DHT22;11958;50.836;4.438;2023-07-31T02:14:08;18.00;90.60
23560;DHT22;11958;50.836;4.438;2023-07-31T02:17:11;18.30;89.30
23560;DHT22;11958;50.836;4.438;2023-07-31T02:20:10;18.10;90.90
23560;DHT22;11958;50.836;4.438;2023-07-31T02:23:07;18.10;91.00
23560;DHT22;11958;50.836;4.438;2023-07-31T02:29:09;18.20;90.10
23560;DHT22;11958;50.836;4.438;2023-07-31T02:31:53;18.20;89.70
23560;DHT22;11958;50.836;4.438;2023-07-31T02:34:37;18.30;89.50
23560;DHT22;11958;50.836;4.438;2023-07-31T02:40:12;17.90;91.90
23560;DHT22;11958;50.836;4.438;2023-07-31T02:42:46;17.70;91.90
23560;DHT22;11958;50.836;4.438;2023-07-31T02:45:17;18.10;92.00
23560;DHT22;11958;50.836;4.438;2023-07-31T02:47:55;17.90;91.90
23560;DHT22;11958;50.836;4.438;2023-07-31T02:50:24;18.10;91.60
23560;DHT22;11958;50.836;4.438;2023-07-31T02:52:50;18.30;89.50
23560;DHT22;11958;50.836;4.438;2023-07-31T02:55:15;17.90;90.50
23560;DHT22;11958;50.836;4.438;2023-07-31T02:57:41;17.80;91.80
23560;DHT22;11958;50.836;4.438;2023-07-31T03:00:07;17.50;92.30
23560;DHT22;11958;50.836;4.438;2023-07-31T03:02:33;17.80;92.80
23560;DHT22;11958;50.836;4.438;2023-07-31T03:04:59;17.90;92.60
23560;DHT22;11958;50.836;4.438;2023-07-31T03:07:24;18.10;91.40
23560;DHT22;11958;50.836;4.438;2023-07-31T03:09:50;18.30;89.60
23560;DHT22;11958;50.836;4.438;2023-07-31T03:12:16;18.10;91.00
23560;DHT22;11958;50.836;4.438;2023-07-31T03:14:42;18.40;89.20
23560;DHT22;11958;50.836;4.438;2023-07-31T03:17:08;18.30;89.30
23560;DHT22;11958;50.836;4.438;2023-07-31T03:19:33;18.10;90.50
23560;DHT22;11958;50.836;4.438;2023-07-31T03:21:59;18.10;91.60
23560;DHT22;11958;50.836;4.438;2023-07-31T03:24:26;18.20;90.10
23560;DHT22;11958;50.836;4.438;2023-07-31T03:26:52;18.10;91.40
23560;DHT22;11958;50.836;4.438;2023-07-31T03:29:33;18.20;90.10
23560;DHT22;11958;50.836;4.438;2023-07-31T03:32:17;17.90;91.40
23560;DHT22;11958;50.836;4.438;2023-07-31T03:37:44;17.90;91.60
23560;DHT22;11958;50.836;4.438;2023-07-31T03:40:10;17.80;92.50
23560;DHT22;11958;50.836;4.438;2023-07-31T03:42:45;17.90;91.80
23560;DHT22;11958;50.836;4.438;2023-07-31T03:45:11;17.90;92.90
23560;DHT22;11958;50.836;4.438;2023-07-31T03:47:40;18.10;92.60
23560;DHT22;11958;50.836;4.438;2023-07-31T03:50:11;17.90;92.50
23560;DHT22;11958;50.836;4.438;2023-07-31T03:52:37;17.90;92.60
23560;DHT22;11958;50.836;4.438;2023-07-31T03:55:06;17.90;92.60
23560;DHT22;11958;50.836;4.438;2023-07-31T03:57:31;17.60;93.60
23560;DHT22;11958;50.836;4.438;2023-07-31T04:00:13;17.60;93.60
23560;DHT22;11958;50.836;4.438;2023-07-31T04:02:40;17.80;93.40
23560;DHT22;11958;50.836;4.438;2023-07-31T04:05:24;17.50;94.40
23560;DHT22;11958;50.836;4.438;2023-07-31T04:07:59;17.90;94.00
23560;DHT22;11958;50.836;4.438;2023-07-31T04:16:16;17.60;94.90
23560;DHT22;11958;50.836;4.438;2023-07-31T04:22:07;17.90;94.30
23560;DHT22;11958;50.836;4.438;2023-07-31T04:24:39;17.80;94.30
23560;DHT22;11958;50.836;4.438;2023-07-31T04:27:20;17.80;94.00
23560;DHT22;11958;50.836;4.438;2023-07-31T04:29:52;17.90;94.30
23560;DHT22;11958;50.836;4.438;2023-07-31T04:32:59;17.60;93.70
23560;DHT22;11958;50.836;4.438;2023-07-31T04:35:34;17.60;94.00
23560;DHT22;11958;50.836;4.438;2023-07-31T04:38:14;17.20;94.20
23560;DHT22;11958;50.836;4.438;2023-07-31T04:40:40;17.40;94.80
23560;DHT22;11958;50.836;4.438;2023-07-31T04:43:11;17.30;94.90
23560;DHT22;11958;50.836;4.438;2023-07-31T04:45:38;17.30;93.70
23560;DHT22;11958;50.836;4.438;2023-07-31T04:48:10;17.40;95.10
23560;DHT22;11958;50.836;4.438;2023-07-31T04:50:54;17.50;95.20
23560;DHT22;11958;50.836;4.438;2023-07-31T04:54:06;17.60;95.10
23560;DHT22;11958;50.836;4.438;2023-07-31T04:56:38;17.60;94.50
23560;DHT22;11958;50.836;4.438;2023-07-31T04:59:04;17.60;94.50
23560;DHT22;11958;50.836;4.438;2023-07-31T05:01:41;17.40;94.80
23560;DHT22;11958;50.836;4.438;2023-07-31T05:04:23;17.50;93.80
23560;DHT22;11958;50.836;4.438;2023-07-31T05:06:51;17.30;94.70
23560;DHT22;11958;50.836;4.438;2023-07-31T05:09:20;17.30;94.70
23560;DHT22;11958;50.836;4.438;2023-07-31T05:11:46;17.40;95.00
23560;DHT22;11958;50.836;4.438;2023-07-31T05:14:17;17.80;93.70
23560;DHT22;11958;50.836;4.438;2023-07-31T05:16:46;17.70;93.80
23560;DHT22;11958;50.836;4.438;2023-07-31T05:19:12;17.40;94.40
23560;DHT22;11958;50.836;4.438;2023-07-31T05:40:44;17.10;95.80
23560;DHT22;11958;50.836;4.438;2023-07-31T05:43:25;17.00;95.50
23560;DHT22;11958;50.836;4.438;2023-07-31T05:46:24;17.10;96.80
23560;DHT22;11958;50.836;4.438;2023-07-31T05:49:11;17.00;95.90
23560;DHT22;11958;50.836;4.438;2023-07-31T05:54:45;17.10;96.00
23560;DHT22;11958;50.836;4.438;2023-07-31T05:57:11;17.20;95.00
23560;DHT22;11958;50.836;4.438;2023-07-31T05:59:46;17.10;95.30
23560;DHT22;11958;50.836;4.438;2023-07-31T06:02:21;17.00;95.40
23560;DHT22;11958;50.836;4.438;2023-07-31T06:04:46;16.90;96.00
23560;DHT22;11958;50.836;4.438;2023-07-31T06:07:12;17.20;96.00
23560;DHT22;11958;50.836;4.438;2023-07-31T06:13:23;17.30;95.90
23560;DHT22;11958;50.836;4.438;2023-07-31T06:19:19;17.00;95.20
23560;DHT22;11958;50.836;4.438;2023-07-31T06:22:00;17.30;95.10
23560;DHT22;11958;50.836;4.438;2023-07-31T06:24:44;17.30;94.70
23560;DHT22;11958;50.836;4.438;2023-07-31T06:27:32;17.50;94.80
23560;DHT22;11958;50.836;4.438;2023-07-31T06:30:00;17.40;94.70
23560;DHT22;11958;50.836;4.438;2023-07-31T06:32:26;17.20;94.80
23560;DHT22;11958;50.836;4.438;2023-07-31T06:41:52;17.40;93.70
23560;DHT22;11958;50.836;4.438;2023-07-31T06:44:20;17.50;92.50
23560;DHT22;11958;50.836;4.438;2023-07-31T07:21:11;18.20;88.40
23560;DHT22;11958;50.836;4.438;2023-07-31T08:59:59;18.60;84.70
23560;DHT22;11958;50.836;4.438;2023-07-31T10:01:25;19.50;86.50
23560;DHT22;11958;50.836;4.438;2023-07-31T10:03:56;19.50;85.90
23560;DHT22;11958;50.836;4.438;2023-07-31T10:06:25;19.60;84.70
23560;DHT22;11958;50.836;4.438;2023-07-31T10:15:06;18.80;89.30
23560;DHT22;11958;50.836;4.438;2023-07-31T10:33:06;19.80;87.10
23560;DHT22;11958;50.836;4.438;2023-07-31T10:35:47;20.10;86.80
23560;DHT22;11958;50.836;4.438;2023-07-31T10:38:29;20.20;86.00
23560;DHT22;11958;50.836;4.438;2023-07-31T11:01:59;19.90;86.60
23560;DHT22;11958;50.836;4.438;2023-07-31T12:42:16;20.90;81.30
23560;DHT22;11958;50.836;4.438;2023-07-31T13:37:27;19.80;86.40
23560;DHT22;11958;50.836;4.438;2023-07-31T13:39:59;19.40;88.20
23560;DHT22;11958;50.836;4.438;2023-07-31T13:42:33;19.20;89.50
23560;DHT22;11958;50.836;4.438;2023-07-31T13:45:02;19.30;90.30
23560;DHT22;11958;50.836;4.438;2023-07-31T13:47:27;19.20;90.30
23560;DHT22;11958;50.836;4.438;2023-07-31T13:49:59;19.00;91.40
23560;DHT22;11958;50.836;4.438;2023-07-31T13:52:25;19.20;91.20
23560;DHT22;11958;50.836;4.438;2023-07-31T13:55:28;19.10;92.00
23560;DHT22;11958;50.836;4.438;2023-07-31T13:57:53;19.00;92.50
23560;DHT22;11958;50.836;4.438;2023-07-31T14:00:25;18.80;93.00
23560;DHT22;11958;50.836;4.438;2023-07-31T14:06:08;18.80;93.80
23560;DHT22;11958;50.836;4.438;2023-07-31T14:08:42;18.80;93.40
23560;DHT22;11958;50.836;4.438;2023-07-31T14:11:08;19.00;93.50
23560;DHT22;11958;50.836;4.438;2023-07-31T14:13:43;18.90;93.10
23560;DHT22;11958;50.836;4.438;2023-07-31T14:16:14;18.80;93.20
23560;DHT22;11958;50.836;4.438;2023-07-31T14:18:41;18.90;92.80
23560;DHT22;11958;50.836;4.438;2023-07-31T14:21:06;18.90;93.70
23560;DHT22;11958;50.836;4.438;2023-07-31T14:23:33;19.00;93.40
23560;DHT22;11958;50.836;4.438;2023-07-31T14:26:08;19.20;93.40
23560;DHT22;11958;50.836;4.438;2023-07-31T14:28:40;19.10;93.10
23560;DHT22;11958;50.836;4.438;2023-07-31T14:31:05;19.10;93.20
23560;DHT22;11958;50.836;4.438;2023-07-31T14:33:34;19.10;93.50
23560;DHT22;11958;50.836;4.438;2023-07-31T14:36:04;19.10;92.70
23560;DHT22;11958;50.836;4.438;2023-07-31T14:38:32;19.20;92.00
23560;DHT22;11958;50.836;4.438;2023-07-31T14:40:58;19.20;91.70
23560;DHT22;11958;50.836;4.438;2023-07-31T14:43:26;19.10;92.50
23560;DHT22;11958;50.836;4.438;2023-07-31T14:45:52;18.90;93.20
23560;DHT22;11958;50.836;4.438;2023-07-31T14:48:39;18.90;93.50
23560;DHT22;11958;50.836;4.438;2023-07-31T14:51:16;18.90;93.20
23560;DHT22;11958;50.836;4.438;2023-07-31T14:53:48;18.80;94.40
23560;DHT22;11958;50.836;4.438;2023-07-31T14:56:29;19.00;93.50
23560;DHT22;11958;50.836;4.438;2023-07-31T15:01:31;19.00;93.90
23560;DHT22;11958;50.836;4.438;2023-07-31T15:03:56;19.20;93.10
23560;DHT22;11958;50.836;4.438;2023-07-31T15:06:31;19.10;93.10
23560;DHT22;11958;50.836;4.438;2023-07-31T15:08:58;19.00;93.80
23560;DHT22;11958;50.836;4.438;2023-07-31T15:11:26;19.10;93.80
23560;DHT22;11958;50.836;4.438;2023-07-31T15:13:52;19.20;92.40
23560;DHT22;11958;50.836;4.438;2023-07-31T15:16:24;19.00;92.50
23560;DHT22;11958;50.836;4.438;2023-07-31T15:18:59;18.90;93.60
23560;DHT22;11958;50.836;4.438;2023-07-31T15:21:24;18.80;94.10
23560;DHT22;11958;50.836;4.438;2023-07-31T15:23:50;18.90;94.20
23560;DHT22;11958;50.836;4.438;2023-07-31T15:26:30;18.90;93.90
23560;DHT22;11958;50.836;4.438;2023-07-31T15:29:06;19.00;93.70
23560;DHT22;11958;50.836;4.438;2023-07-31T15:31:54;18.90;93.90
23560;DHT22;11958;50.836;4.438;2023-07-31T15:34:29;18.70;93.40
23560;DHT22;11958;50.836;4.438;2023-07-31T15:37:00;18.90;94.40
23560;DHT22;11958;50.836;4.438;2023-07-31T15:39:26;19.00;94.20
23560;DHT22;11958;50.836;4.438;2023-07-31T15:44:24;18.90;93.20
23560;DHT22;11958;50.836;4.438;2023-07-31T15:46:50;18.80;94.50
23560;DHT22;11958;50.836;4.438;2023-07-31T15:49:15;18.70;94.00
23560;DHT22;11958;50.836;4.438;2023-07-31T15:51:41;18.80;94.30
23560;DHT22;11958;50.836;4.438;2023-07-31T15:54:07;18.80;95.00
23560;DHT22;11958;50.836;4.438;2023-07-31T15:56:32;18.60;94.80
23560;DHT22;11958;50.836;4.438;2023-07-31T15:59:05;18.80;93.40
23560;DHT22;11958;50.836;4.438;2023-07-31T16:01:31;18.70;94.80
23560;DHT22;11958;50.836;4.438;2023-07-31T16:03:57;18.60;95.00
23560;DHT22;11958;50.836;4.438;2023-07-31T16:06:37;18.60;95.40
23560;DHT22;11958;50.836;4.438;2023-07-31T16:09:03;18.40;95.60
23560;DHT22;11958;50.836;4.438;2023-07-31T16:11:29;18.50;95.80
23560;DHT22;11958;50.836;4.438;2023-07-31T16:13:54;18.30;96.60
23560;DHT22;11958;50.836;4.438;2023-07-31T16:16:23;18.40;97.40
23560;DHT22;11958;50.836;4.438;2023-07-31T16:18:52;18.40;97.30
23560;DHT22;11958;50.836;4.438;2023-07-31T16:21:18;18.50;97.00
23560;DHT22;11958;50.836;4.438;2023-07-31T16:23:46;18.80;96.60
23560;DHT22;11958;50.836;4.438;2023-07-31T16:26:21;18.70;95.80
23560;DHT22;11958;50.836;4.438;2023-07-31T16:29:05;18.80;95.70
23560;DHT22;11958;50.836;4.438;2023-07-31T16:31:31;18.60;96.20
23560;DHT22;11958;50.836;4.438;2023-07-31T16:34:13;18.70;96.60
23560;DHT22;11958;50.836;4.438;2023-07-31T16:36:41;18.60;96.60
23560;DHT22;11958;50.836;4.438;2023-07-31T16:39:22;18.70;96.00
23560;DHT22;11958;50.836;4.438;2023-07-31T16:41:47;18.50;97.20
23560;DHT22;11958;50.836;4.438;2023-07-31T16:44:19;18.40;97.10
23560;DHT22;11958;50.836;4.438;2023-07-31T16:46:44;18.60;97.60
23560;DHT22;11958;50.836;4.438;2023-07-31T16:49:10;18.60;97.00
23560;DHT22;11958;50.836;4.438;2023-07-31T16:51:36;18.70;97.30
23560;DHT22;11958;50.836;4.438;2023-07-31T16:54:02;18.80;96.20
23560;DHT22;11958;50.836;4.438;2023-07-31T16:56:27;18.70;95.90
23560;DHT22;11958;50.836;4.438;2023-07-31T16:58:53;18.70;96.30
23560;DHT22;11958;50.836;4.438;2023-07-31T17:04:27;18.50;97.10
23560;DHT22;11958;50.836;4.438;2023-07-31T17:09:33;18.60;97.60
23560;DHT22;11958;50.836;4.438;2023-07-31T17:12:14;18.40;97.80
23560;DHT22;11958;50.836;4.438;2023-07-31T17:15:00;18.60;96.90
23560;DHT22;11958;50.836;4.438;2023-07-31T17:20:10;18.60;97.70
23560;DHT22;11958;50.836;4.438;2023-07-31T17:22:42;18.50;97.70
23560;DHT22;11958;50.836;4.438;2023-07-31T17:25:10;18.70;96.90
23560;DHT22;11958;50.836;4.438;2023-07-31T17:27:35;18.70;96.50
23560;DHT22;11958;50.836;4.438;2023-07-31T17:30:21;18.50;97.50
23560;DHT22;11958;50.836;4.438;2023-07-31T17:35:18;18.70;98.00
23560;DHT22;11958;50.836;4.438;2023-07-31T17:37:59;18.50;97.60
23560;DHT22;11958;50.836;4.438;2023-07-31T17:40:28;18.60;98.60
23560;DHT22;11958;50.836;4.438;2023-07-31T17:43:09;18.80;97.90
23560;DHT22;11958;50.836;4.438;2023-07-31T17:48:17;18.60;97.80
23560;DHT22;11958;50.836;4.438;2023-07-31T17:50:47;18.70;98.00
23560;DHT22;11958;50.836;4.438;2023-07-31T17:53:25;18.70;97.70
23560;DHT22;11958;50.836;4.438;2023-07-31T17:55:51;18.70;97.80
23560;DHT22;11958;50.836;4.438;2023-07-31T17:58:20;18.80;97.30
23560;DHT22;11958;50.836;4.438;2023-07-31T18:01:00;19.00;96.40
23560;DHT22;11958;50.836;4.438;2023-07-31T18:03:44;18.60;97.60
23560;DHT22;11958;50.836;4.438;2023-07-31T18:06:09;18.80;98.10
23560;DHT22;11958;50.836;4.438;2023-07-31T18:08:38;18.70;97.80
23560;DHT22;11958;50.836;4.438;2023-07-31T18:11:04;18.70;97.90
23560;DHT22;11958;50.836;4.438;2023-07-31T18:13:30;18.80;97.20
23560;DHT22;11958;50.836;4.438;2023-07-31T18:15:56;18.90;96.70
23560;DHT22;11958;50.836;4.438;2023-07-31T18:18:21;18.80;97.20
23560;DHT22;11958;50.836;4.438;2023-07-31T18:20:59;18.60;97.40
23560;DHT22;11958;50.836;4.438;2023-07-31T18:23:34;18.60;98.00
23560;DHT22;11958;50.836;4.438;2023-07-31T18:26:00;18.60;98.90
23560;DHT22;11958;50.836;4.438;2023-07-31T18:28:26;18.70;98.40
23560;DHT22;11958;50.836;4.438;2023-07-31T18:30:57;18.60;97.80
23560;DHT22;11958;50.836;4.438;2023-07-31T18:33:41;18.40;98.30
23560;DHT22;11958;50.836;4.438;2023-07-31T18:36:31;18.40;98.70
23560;DHT22;11958;50.836;4.438;2023-07-31T18:39:01;18.70;98.00
23560;DHT22;11958;50.836;4.438;2023-07-31T18:41:27;18.50;98.00
23560;DHT22;11958;50.836;4.438;2023-07-31T18:44:12;18.50;98.50
23560;DHT22;11958;50.836;4.438;2023-07-31T18:47:02;18.50;98.60
23560;DHT22;11958;50.836;4.438;2023-07-31T18:49:42;18.70;97.30
23560;DHT22;11958;50.836;4.438;2023-07-31T18:52:13;18.70;97.30
23560;DHT22;11958;50.836;4.438;2023-07-31T18:54:45;18.60;98.20
23560;DHT22;11958;50.836;4.438;2023-07-31T18:57:41;18.60;97.90
23560;DHT22;11958;50.836;4.438;2023-07-31T19:00:09;18.90;97.60
23560;DHT22;11958;50.836;4.438;2023-07-31T19:02:47;18.80;96.90
23560;DHT22;11958;50.836;4.438;2023-07-31T19:05:16;18.60;96.90
23560;DHT22;11958;50.836;4.438;2023-07-31T19:07:43;18.60;97.10
23560;DHT22;11958;50.836;4.438;2023-07-31T19:10:09;18.70;96.80
23560;DHT22;11958;50.836;4.438;2023-07-31T19:13:00;18.50;97.20
23560;DHT22;11958;50.836;4.438;2023-07-31T19:15:28;18.50;97.60
23560;DHT22;11958;50.836;4.438;2023-07-31T19:17:57;18.80;97.00
23560;DHT22;11958;50.836;4.438;2023-07-31T19:20:22;18.50;98.00
23560;DHT22;11958;50.836;4.438;2023-07-31T19:22:48;18.60;97.90
23560;DHT22;11958;50.836;4.438;2023-07-31T19:25:33;18.70;98.10
23560;DHT22;11958;50.836;4.438;2023-07-31T19:28:02;18.70;97.70
23560;DHT22;11958;50.836;4.438;2023-07-31T19:30:46;18.40;98.10
23560;DHT22;11958;50.836;4.438;2023-07-31T19:33:11;18.70;98.10
23560;DHT22;11958;50.836;4.438;2023-07-31T19:35:53;18.60;97.60
23560;DHT22;11958;50.836;4.438;2023-07-31T19:38:26;18.60;97.60
23560;DHT22;11958;50.836;4.438;2023-07-31T19:40:51;18.50;97.40
23560;DHT22;11958;50.836;4.438;2023-07-31T19:43:23;18.50;97.70
23560;DHT22;11958;50.836;4.438;2023-07-31T19:46:02;18.50;98.40
23560;DHT22;11958;50.836;4.438;2023-07-31T19:48:27;18.50;98.40
23560;DHT22;11958;50.836;4.438;2023-07-31T19:51:02;18.60;98.80
23560;DHT22;11958;50.836;4.438;2023-07-31T19:53:36;18.50;99.30
23560;DHT22;11958;50.836;4.438;2023-07-31T19:56:04;18.70;98.30
23560;DHT22;11958;50.836;4.438;2023-07-31T20:01:18;18.60;98.30
23560;DHT22;11958;50.836;4.438;2023-07-31T20:03:45;18.60;98.80
23560;DHT22;11958;50.836;4.438;2023-07-31T20:06:13;18.70;98.60
23560;DHT22;11958;50.836;4.438;2023-07-31T20:08:39;18.80;98.40
23560;DHT22;11958;50.836;4.438;2023-07-31T20:11:05;18.60;98.30
23560;DHT22;11958;50.836;4.438;2023-07-31T20:13:34;18.60;98.80
23560;DHT22;11958;50.836;4.438;2023-07-31T20:16:03;18.60;98.80
23560;DHT22;11958;50.836;4.438;2023-07-31T20:18:47;18.80;98.60
23560;DHT22;11958;50.836;4.438;2023-07-31T20:21:13;18.50;99.00
23560;DHT22;11958;50.836;4.438;2023-07-31T20:23:39;18.60;98.90
23560;DHT22;11958;50.836;4.438;2023-07-31T20:26:07;18.80;98.80
23560;DHT22;11958;50.836;4.438;2023-07-31T20:28:45;18.70;99.00
23560;DHT22;11958;50.836;4.438;2023-07-31T20:31:12;18.70;98.80
23560;DHT22;11958;50.836;4.438;2023-07-31T20:37:05;18.60;99.00
23560;DHT22;11958;50.836;4.438;2023-07-31T20:39:31;18.80;99.00
23560;DHT22;11958;50.836;4.438;2023-07-31T20:42:17;18.70;98.50
23560;DHT22;11958;50.836;4.438;2023-07-31T20:45:03;18.60;98.70
23560;DHT22;11958;50.836;4.438;2023-07-31T20:47:38;18.60;98.40
23560;DHT22;11958;50.836;4.438;2023-07-31T20:50:13;18.70;99.60
23560;DHT22;11958;50.836;4.438;2023-07-31T20:55:38;18.80;98.60
23560;DHT22;11958;50.836;4.438;2023-07-31T21:00:58;19.00;97.40
23560;DHT22;11958;50.836;4.438;2023-07-31T21:03:56;18.60;98.20
23560;DHT22;11958;50.836;4.438;2023-07-31T21:07:19;18.80;99.40
23560;DHT22;11958;50.836;4.438;2023-07-31T21:09:45;18.80;98.80
23560;DHT22;11958;50.836;4.438;2023-07-31T21:12:29;18.80;98.50
23560;DHT22;11958;50.836;4.438;2023-07-31T21:14:54;18.70;99.10
23560;DHT22;11958;50.836;4.438;2023-07-31T21:17:20;19.00;97.70
23560;DHT22;11958;50.836;4.438;2023-07-31T21:19:49;18.90;97.90
23560;DHT22;11958;50.836;4.438;2023-07-31T21:22:30;18.90;98.40
23560;DHT22;11958;50.836;4.438;2023-07-31T21:24:56;18.70;97.80
23560;DHT22;11958;50.836;4.438;2023-07-31T21:27:25;18.70;99.10
23560;DHT22;11958;50.836;4.438;2023-07-31T21:29:50;18.80;97.90
23560;DHT22;11958;50.836;4.438;2023-07-31T21:32:40;18.70;97.50
23560;DHT22;11958;50.836;4.438;2023-07-31T21:35:25;18.60;98.30
23560;DHT22;11958;50.836;4.438;2023-07-31T21:37:54;18.50;99.30
23560;DHT22;11958;50.836;4.438;2023-07-31T21:40:24;18.70;98.60
23560;DHT22;11958;50.836;4.438;2023-07-31T21:42:54;18.70;98.10
23560;DHT22;11958;50.836;4.438;2023-07-31T21:45:30;18.40;99.10
23560;DHT22;11958;50.836;4.438;2023-07-31T21:47:59;18.60;99.30
23560;DHT22;11958;50.836;4.438;2023-07-31T21:50:24;18.50;99.00
23560;DHT22;11958;50.836;4.438;2023-07-31T21:52:51;18.30;99.20
23560;DHT22;11958;50.836;4.438;2023-07-31T21:55:17;18.40;99.70
23560;DHT22;11958;50.836;4.438;2023-07-31T21:57:43;18.50;99.50
23560;DHT22;11958;50.836;4.438;2023-07-31T22:00:09;18.40;99.20
23560;DHT22;11958;50.836;4.438;2023-07-31T22:02:35;18.40;99.20
23560;DHT22;11958;50.836;4.438;2023-07-31T22:05:21;18.20;99.90
23560;DHT22;11958;50.836;4.438;2023-07-31T22:07:47;18.20;99.90
23560;DHT22;11958;50.836;4.438;2023-07-31T22:10:21;18.30;99.30
23560;DHT22;11958;50.836;4.438;2023-07-31T22:12:46;18.30;99.40
23560;DHT22;11958;50.836;4.438;2023-07-31T22:15:20;18.30;99.50
23560;DHT22;11958;50.836;4.438;2023-07-31T22:17:49;18.40;99.30
23560;DHT22;11958;50.836;4.438;2023-07-31T22:20:15;18.40;98.10
23560;DHT22;11958;50.836;4.438;2023-07-31T22:22:50;18.20;99.20
23560;DHT22;11958;50.836;4.438;2023-07-31T22:25:15;18.30;99.30
23560;DHT22;11958;50.836;4.438;2023-07-31T22:30:38;18.20;98.10
23560;DHT22;11958;50.836;4.438;2023-07-31T22:33:04;18.40;97.40
23560;DHT22;11958;50.836;4.438;2023-07-31T22:35:29;18.40;97.50
23560;DHT22;11958;50.836;4.438;2023-07-31T22:38:19;18.20;97.40
23560;DHT22;11958;50.836;4.438;2023-07-31T22:40:49;18.10;98.80
23560;DHT22;11958;50.836;4.438;2023-07-31T22:43:15;17.90;99.00
23560;DHT22;11958;50.836;4.438;2023-07-31T22:45:47;18.20;97.90
23560;DHT22;11958;50.836;4.438;2023-07-31T22:48:24;17.90;99.10
23560;DHT22;11958;50.836;4.438;2023-07-31T22:50:52;17.80;98.90
23560;DHT22;11958;50.836;4.438;2023-07-31T22:53:20;17.80;99.40
23560;DHT22;11958;50.836;4.438;2023-07-31T22:58:28;17.60;99.50
23560;DHT22;11958;50.836;4.438;2023-07-31T23:01:08;17.60;99.90
23560;DHT22;11958;50.836;4.438;2023-07-31T23:03:47;17.60;99.90
23560;DHT22;11958;50.836;4.438;2023-07-31T23:06:13;17.70;99.90
23560;DHT22;11958;50.836;4.438;2023-07-31T23:08:48;17.50;99.80
23560;DHT22;11958;50.836;4.438;2023-07-31T23:11:14;17.60;99.70
23560;DHT22;11958;50.836;4.438;2023-07-31T23:13:52;17.80;99.90
23560;DHT22;11958;50.836;4.438;2023-07-31T23:16:17;17.70;99.20
23560;DHT22;11958;50.836;4.438;2023-07-31T23:18:43;17.80;99.90
23560;DHT22;11958;50.836;4.438;2023-07-31T23:21:09;17.70;99.10
23560;DHT22;11958;50.836;4.438;2023-07-31T23:23:36;17.80;99.30
23560;DHT22;11958;50.836;4.438;2023-07-31T23:26:01;17.80;99.30
23560;DHT22;11958;50.836;4.438;2023-07-31T23:28:27;17.60;99.40
23560;DHT22;11958;50.836;4.438;2023-07-31T23:31:03;17.40;99.60
23560;DHT22;11958;50.836;4.438;2023-07-31T23:33:32;17.40;99.90
23560;DHT22;11958;50.836;4.438;2023-07-31T23:36:08;17.50;99.90
23560;DHT22;11958;50.836;4.438;2023-07-31T23:38:34;17.60;99.90
23560;DHT22;11958;50.836;4.438;2023-07-31T23:41:08;17.40;99.90
23560;DHT22;11958;50.836;4.438;2023-07-31T23:43:34;17.70;99.90
23560;DHT22;11958;50.836;4.438;2023-07-31T23:46:00;17.70;99.90
23560;DHT22;11958;50.836;4.438;2023-07-31T23:48:26;17.60;99.70
23560;DHT22;11958;50.836;4.438;2023-07-31T23:51:01;17.30;99.90
23560;DHT22;11958;50.836;4.438;2023-07-31T23:53:29;17.50;99.90
23560;DHT22;11958;50.836;4.438;2023-07-31T23:55:55;17.80;99.90
